Stanley, North Carolina
Current Conditions -  °F | °C
As of 2:15 AM on Friday 28 Nov 2014 (Local Time) from KIPJ Reporting Station
Clear Clear  
Wind Chill: 25°   Ceiling: Unl
Heat Index: 32°   Visibility: 10mi
Dew Point: 21°   Wind: 8mph
Humidity: 63%   Direction: 320°NW
Pressure: 30.31"   Gusts: NA
Location:  35.36°N, 81.1°W
Report Text: KIPJ 280715Z AUTO 32007KT 290V350 10SM CLR 00/M06 A3031 RMK AO2 T00001062
Loading
Personal Weather Stations






























Interactive Weather Map New forecast layout! Learn more

10-Day Weather Forecast

Advertisements
Track Severe Weather on mobile